Anacoco, Louisiana
Current Conditions -  °F | °C
As of 4:56 AM on Wednesday 26 Nov 2014 (Local Time) from KAQV Reporting Station
Clear Clear  
Wind Chill:   Ceiling: Unl
Heat Index:   Visibility: 10mi
Dew Point:   Wind: 5mph
Humidity: 65%   Direction: NA
Pressure: 30.15"   Gusts: NA
Location:  31.25°N, 93.34°W
Report Text: KAQV 261056Z AUTO VRB04KT 10SM CLR 07/01 A3015 RMK AO2 SLP210 T00720011
Loading
Personal Weather Stations






























Interactive Weather Map New forecast layout! Learn more

10-Day Weather Forecast

Advertisements
Track Severe Weather on mobile